sensor_id;sensor_type;location;lat;lon;timestamp;temperature;humidity
71942;DHT22;59997;53.300;-6.260;2023-09-19T00:02:18;12.06;87.39
71942;DHT22;59997;53.300;-6.260;2023-09-19T00:04:43;12.21;86.54
71942;DHT22;59997;53.300;-6.260;2023-09-19T00:07:10;12.19;86.48
71942;DHT22;59997;53.300;-6.260;2023-09-19T00:09:35;12.16;86.67
71942;DHT22;59997;53.300;-6.260;2023-09-19T00:12:06;12.11;85.85
71942;DHT22;59997;53.300;-6.260;2023-09-19T00:14:34;12.12;85.91
71942;DHT22;59997;53.300;-6.260;2023-09-19T00:17:01;12.04;85.86
71942;DHT22;59997;53.300;-6.260;2023-09-19T00:19:36;12.06;85.97
71942;DHT22;59997;53.300;-6.260;2023-09-19T00:22:02;12.05;86.27
71942;DHT22;59997;53.300;-6.260;2023-09-19T00:24:28;12.08;85.95
71942;DHT22;59997;53.300;-6.260;2023-09-19T00:26:54;12.04;86.36
71942;DHT22;59997;53.300;-6.260;2023-09-19T00:29:21;12.01;86.95
71942;DHT22;59997;53.300;-6.260;2023-09-19T00:31:46;11.92;87.26
71942;DHT22;59997;53.300;-6.260;2023-09-19T00:34:12;11.87;87.76
71942;DHT22;59997;53.300;-6.260;2023-09-19T00:36:37;11.78;88.35
71942;DHT22;59997;53.300;-6.260;2023-09-19T00:39:08;11.78;88.28
71942;DHT22;59997;53.300;-6.260;2023-09-19T00:41:34;11.73;89.05
71942;DHT22;59997;53.300;-6.260;2023-09-19T00:44:03;11.69;89.59
71942;DHT22;59997;53.300;-6.260;2023-09-19T00:46:30;11.63;89.76
71942;DHT22;59997;53.300;-6.260;2023-09-19T00:48:56;11.56;90.02
71942;DHT22;59997;53.300;-6.260;2023-09-19T00:51:22;11.56;90.11
71942;DHT22;59997;53.300;-6.260;2023-09-19T00:53:51;11.46;90.25
71942;DHT22;59997;53.300;-6.260;2023-09-19T00:56:18;11.44;90.33
71942;DHT22;59997;53.300;-6.260;2023-09-19T00:58:47;11.36;90.49
71942;DHT22;59997;53.300;-6.260;2023-09-19T01:01:13;11.37;90.51
71942;DHT22;59997;53.300;-6.260;2023-09-19T01:03:40;11.39;90.39
71942;DHT22;59997;53.300;-6.260;2023-09-19T01:06:06;11.40;90.43
71942;DHT22;59997;53.300;-6.260;2023-09-19T01:08:33;11.39;90.49
71942;DHT22;59997;53.300;-6.260;2023-09-19T01:11:27;11.30;90.56
71942;DHT22;59997;53.300;-6.260;2023-09-19T01:14:05;11.33;90.60
71942;DHT22;59997;53.300;-6.260;2023-09-19T01:16:50;11.40;90.68
71942;DHT22;59997;53.300;-6.260;2023-09-19T01:22:16;11.37;90.61
71942;DHT22;59997;53.300;-6.260;2023-09-19T01:31:11;11.36;90.74
71942;DHT22;59997;53.300;-6.260;2023-09-19T01:33:56;11.40;90.73
71942;DHT22;59997;53.300;-6.260;2023-09-19T01:36:28;11.47;90.73
71942;DHT22;59997;53.300;-6.260;2023-09-19T01:38:55;11.52;90.73
71942;DHT22;59997;53.300;-6.260;2023-09-19T01:41:33;11.71;90.59
71942;DHT22;59997;53.300;-6.260;2023-09-19T01:44:03;11.74;90.77
71942;DHT22;59997;53.300;-6.260;2023-09-19T01:46:35;11.80;90.81
71942;DHT22;59997;53.300;-6.260;2023-09-19T01:49:23;11.87;90.75
71942;DHT22;59997;53.300;-6.260;2023-09-19T01:52:00;11.87;90.93
71942;DHT22;59997;53.300;-6.260;2023-09-19T01:54:35;11.89;90.96
71942;DHT22;59997;53.300;-6.260;2023-09-19T01:57:09;12.01;90.96
71942;DHT22;59997;53.300;-6.260;2023-09-19T01:59:43;12.05;91.01
71942;DHT22;59997;53.300;-6.260;2023-09-19T02:02:12;12.09;91.08
71942;DHT22;59997;53.300;-6.260;2023-09-19T02:04:37;12.18;90.66
71942;DHT22;59997;53.300;-6.260;2023-09-19T02:07:03;12.12;90.86
71942;DHT22;59997;53.300;-6.260;2023-09-19T02:09:31;12.16;90.85
71942;DHT22;59997;53.300;-6.260;2023-09-19T02:12:00;12.18;90.96
71942;DHT22;59997;53.300;-6.260;2023-09-19T02:14:27;12.16;90.92
71942;DHT22;59997;53.300;-6.260;2023-09-19T02:16:54;12.18;91.00
71942;DHT22;59997;53.300;-6.260;2023-09-19T02:19:20;12.21;90.91
71942;DHT22;59997;53.300;-6.260;2023-09-19T02:21:46;12.25;90.80
71942;DHT22;59997;53.300;-6.260;2023-09-19T02:24:14;12.37;90.56
71942;DHT22;59997;53.300;-6.260;2023-09-19T02:26:40;12.39;90.66
71942;DHT22;59997;53.300;-6.260;2023-09-19T02:29:06;12.40;90.64
71942;DHT22;59997;53.300;-6.260;2023-09-19T02:31:31;12.37;90.80
71942;DHT22;59997;53.300;-6.260;2023-09-19T02:33:57;12.40;90.91
71942;DHT22;59997;53.300;-6.260;2023-09-19T02:36:22;12.40;90.84
71942;DHT22;59997;53.300;-6.260;2023-09-19T02:38:49;12.40;90.86
71942;DHT22;59997;53.300;-6.260;2023-09-19T02:41:14;12.41;90.83
71942;DHT22;59997;53.300;-6.260;2023-09-19T02:43:40;12.37;90.90
71942;DHT22;59997;53.300;-6.260;2023-09-19T02:46:05;12.41;90.82
71942;DHT22;59997;53.300;-6.260;2023-09-19T02:48:31;12.46;90.88
71942;DHT22;59997;53.300;-6.260;2023-09-19T02:50:57;12.47;90.87
71942;DHT22;59997;53.300;-6.260;2023-09-19T02:53:23;12.50;90.85
71942;DHT22;59997;53.300;-6.260;2023-09-19T02:55:49;12.53;90.87
71942;DHT22;59997;53.300;-6.260;2023-09-19T02:58:15;12.54;90.86
71942;DHT22;59997;53.300;-6.260;2023-09-19T03:00:41;12.58;90.99
71942;DHT22;59997;53.300;-6.260;2023-09-19T03:03:07;12.65;90.80
71942;DHT22;59997;53.300;-6.260;2023-09-19T03:05:34;12.71;90.72
71942;DHT22;59997;53.300;-6.260;2023-09-19T03:08:00;12.74;90.81
71942;DHT22;59997;53.300;-6.260;2023-09-19T03:10:28;12.75;90.64
71942;DHT22;59997;53.300;-6.260;2023-09-19T03:12:54;12.75;90.88
71942;DHT22;59997;53.300;-6.260;2023-09-19T03:15:20;12.78;90.80
71942;DHT22;59997;53.300;-6.260;2023-09-19T03:17:47;12.75;90.79
71942;DHT22;59997;53.300;-6.260;2023-09-19T03:20:13;12.74;90.89
71942;DHT22;59997;53.300;-6.260;2023-09-19T03:22:39;12.74;90.99
71942;DHT22;59997;53.300;-6.260;2023-09-19T03:25:06;12.73;90.95
71942;DHT22;59997;53.300;-6.260;2023-09-19T03:27:36;12.73;91.13
71942;DHT22;59997;53.300;-6.260;2023-09-19T03:30:01;12.78;91.10
71942;DHT22;59997;53.300;-6.260;2023-09-19T03:32:31;12.81;91.08
71942;DHT22;59997;53.300;-6.260;2023-09-19T03:34:57;12.81;91.08
71942;DHT22;59997;53.300;-6.260;2023-09-19T03:37:22;12.89;90.98
71942;DHT22;59997;53.300;-6.260;2023-09-19T03:39:48;13.02;90.75
71942;DHT22;59997;53.300;-6.260;2023-09-19T03:42:13;13.08;90.87
71942;DHT22;59997;53.300;-6.260;2023-09-19T03:44:39;13.02;90.96
71942;DHT22;59997;53.300;-6.260;2023-09-19T03:47:04;13.12;90.97
71942;DHT22;59997;53.300;-6.260;2023-09-19T03:49:30;13.22;90.80
71942;DHT22;59997;53.300;-6.260;2023-09-19T03:51:56;13.34;90.79
71942;DHT22;59997;53.300;-6.260;2023-09-19T03:54:21;13.39;90.73
71942;DHT22;59997;53.300;-6.260;2023-09-19T03:56:47;13.46;90.55
71942;DHT22;59997;53.300;-6.260;2023-09-19T03:59:12;13.48;90.69
71942;DHT22;59997;53.300;-6.260;2023-09-19T04:01:38;13.55;90.52
71942;DHT22;59997;53.300;-6.260;2023-09-19T04:04:06;13.64;90.47
71942;DHT22;59997;53.300;-6.260;2023-09-19T04:06:35;13.79;90.42
71942;DHT22;59997;53.300;-6.260;2023-09-19T04:09:04;13.83;90.25
71942;DHT22;59997;53.300;-6.260;2023-09-19T04:11:32;13.86;90.41
71942;DHT22;59997;53.300;-6.260;2023-09-19T04:13:58;13.82;90.65
71942;DHT22;59997;53.300;-6.260;2023-09-19T04:16:24;13.81;90.70
71942;DHT22;59997;53.300;-6.260;2023-09-19T04:18:49;13.81;90.73
71942;DHT22;59997;53.300;-6.260;2023-09-19T04:21:15;13.89;90.76
71942;DHT22;59997;53.300;-6.260;2023-09-19T04:23:41;13.92;90.77
71942;DHT22;59997;53.300;-6.260;2023-09-19T04:26:06;13.99;90.71
71942;DHT22;59997;53.300;-6.260;2023-09-19T04:28:32;14.09;90.70
71942;DHT22;59997;53.300;-6.260;2023-09-19T04:31:00;14.06;90.79
71942;DHT22;59997;53.300;-6.260;2023-09-19T04:33:26;14.12;90.66
71942;DHT22;59997;53.300;-6.260;2023-09-19T04:35:54;14.14;90.64
71942;DHT22;59997;53.300;-6.260;2023-09-19T04:38:20;14.20;90.67
71942;DHT22;59997;53.300;-6.260;2023-09-19T04:40:46;14.26;90.60
71942;DHT22;59997;53.300;-6.260;2023-09-19T04:43:12;14.30;90.79
71942;DHT22;59997;53.300;-6.260;2023-09-19T04:45:39;14.37;90.53
71942;DHT22;59997;53.300;-6.260;2023-09-19T04:48:05;14.34;90.63
71942;DHT22;59997;53.300;-6.260;2023-09-19T04:50:37;14.26;90.82
71942;DHT22;59997;53.300;-6.260;2023-09-19T04:53:04;14.28;90.77
71942;DHT22;59997;53.300;-6.260;2023-09-19T04:55:29;14.33;90.78
71942;DHT22;59997;53.300;-6.260;2023-09-19T04:57:55;14.42;90.67
71942;DHT22;59997;53.300;-6.260;2023-09-19T05:00:21;14.52;90.61
71942;DHT22;59997;53.300;-6.260;2023-09-19T05:02:55;14.58;90.65
71942;DHT22;59997;53.300;-6.260;2023-09-19T05:05:24;14.61;90.64
71942;DHT22;59997;53.300;-6.260;2023-09-19T05:07:50;14.57;90.71
71942;DHT22;59997;53.300;-6.260;2023-09-19T05:10:16;14.62;90.84
71942;DHT22;59997;53.300;-6.260;2023-09-19T05:12:44;14.57;90.87
71942;DHT22;59997;53.300;-6.260;2023-09-19T05:15:13;14.60;90.91
71942;DHT22;59997;53.300;-6.260;2023-09-19T05:17:40;14.65;90.82
71942;DHT22;59997;53.300;-6.260;2023-09-19T05:20:06;14.62;90.87
71942;DHT22;59997;53.300;-6.260;2023-09-19T05:22:38;14.71;90.77
71942;DHT22;59997;53.300;-6.260;2023-09-19T05:25:06;14.76;90.77
71942;DHT22;59997;53.300;-6.260;2023-09-19T05:27:32;14.75;90.82
71942;DHT22;59997;53.300;-6.260;2023-09-19T05:29:59;14.75;90.80
71942;DHT22;59997;53.300;-6.260;2023-09-19T05:32:24;14.75;90.83
71942;DHT22;59997;53.300;-6.260;2023-09-19T05:34:50;14.82;90.81
71942;DHT22;59997;53.300;-6.260;2023-09-19T05:37:19;14.90;90.60
71942;DHT22;59997;53.300;-6.260;2023-09-19T05:39:45;14.99;90.58
71942;DHT22;59997;53.300;-6.260;2023-09-19T05:42:10;15.10;90.40
71942;DHT22;59997;53.300;-6.260;2023-09-19T05:44:36;15.11;90.54
71942;DHT22;59997;53.300;-6.260;2023-09-19T05:47:02;15.19;90.55
71942;DHT22;59997;53.300;-6.260;2023-09-19T05:49:28;15.14;90.79
71942;DHT22;59997;53.300;-6.260;2023-09-19T05:51:53;15.11;90.90
71942;DHT22;59997;53.300;-6.260;2023-09-19T05:54:20;15.07;90.97
71942;DHT22;59997;53.300;-6.260;2023-09-19T05:56:46;15.06;91.03
71942;DHT22;59997;53.300;-6.260;2023-09-19T05:59:12;15.06;91.08
71942;DHT22;59997;53.300;-6.260;2023-09-19T06:01:41;15.03;91.08
71942;DHT22;59997;53.300;-6.260;2023-09-19T06:04:07;14.97;91.15
71942;DHT22;59997;53.300;-6.260;2023-09-19T06:06:33;15.08;91.07
71942;DHT22;59997;53.300;-6.260;2023-09-19T06:09:02;15.19;90.99
71942;DHT22;59997;53.300;-6.260;2023-09-19T06:11:27;15.24;90.89
71942;DHT22;59997;53.300;-6.260;2023-09-19T06:13:54;15.30;90.76
71942;DHT22;59997;53.300;-6.260;2023-09-19T06:16:20;15.30;90.90
71942;DHT22;59997;53.300;-6.260;2023-09-19T06:18:46;15.28;90.92
71942;DHT22;59997;53.300;-6.260;2023-09-19T06:21:11;15.32;90.87
71942;DHT22;59997;53.300;-6.260;2023-09-19T06:23:37;15.28;90.94
71942;DHT22;59997;53.300;-6.260;2023-09-19T06:26:02;15.34;90.95
71942;DHT22;59997;53.300;-6.260;2023-09-19T06:28:31;15.32;90.95
71942;DHT22;59997;53.300;-6.260;2023-09-19T06:30:58;15.32;91.09
71942;DHT22;59997;53.300;-6.260;2023-09-19T06:33:24;15.34;91.05
71942;DHT22;59997;53.300;-6.260;2023-09-19T06:35:50;15.38;91.03
71942;DHT22;59997;53.300;-6.260;2023-09-19T06:38:18;15.35;90.98
71942;DHT22;59997;53.300;-6.260;2023-09-19T06:40:44;15.40;90.89
71942;DHT22;59997;53.300;-6.260;2023-09-19T06:43:10;15.44;90.89
71942;DHT22;59997;53.300;-6.260;2023-09-19T06:45:36;15.49;90.83
71942;DHT22;59997;53.300;-6.260;2023-09-19T06:48:02;15.49;90.86
71942;DHT22;59997;53.300;-6.260;2023-09-19T06:50:28;15.49;90.88
71942;DHT22;59997;53.300;-6.260;2023-09-19T06:52:56;15.57;90.84
71942;DHT22;59997;53.300;-6.260;2023-09-19T06:55:25;15.63;90.89
71942;DHT22;59997;53.300;-6.260;2023-09-19T06:57:53;15.67;90.93
71942;DHT22;59997;53.300;-6.260;2023-09-19T07:00:22;15.70;90.94
71942;DHT22;59997;53.300;-6.260;2023-09-19T07:02:58;15.67;90.96
71942;DHT22;59997;53.300;-6.260;2023-09-19T07:05:28;15.72;90.94
71942;DHT22;59997;53.300;-6.260;2023-09-19T07:07:54;15.72;90.99
71942;DHT22;59997;53.300;-6.260;2023-09-19T07:10:21;15.73;90.96
71942;DHT22;59997;53.300;-6.260;2023-09-19T07:12:57;15.78;90.95
71942;DHT22;59997;53.300;-6.260;2023-09-19T07:15:24;15.92;90.61
71942;DHT22;59997;53.300;-6.260;2023-09-19T07:17:54;15.90;90.70
71942;DHT22;59997;53.300;-6.260;2023-09-19T07:20:20;15.94;90.75
71942;DHT22;59997;53.300;-6.260;2023-09-19T07:22:46;15.99;90.76
71942;DHT22;59997;53.300;-6.260;2023-09-19T07:25:13;16.07;90.60
71942;DHT22;59997;53.300;-6.260;2023-09-19T07:27:43;16.13;90.53
71942;DHT22;59997;53.300;-6.260;2023-09-19T07:30:10;16.24;90.38
71942;DHT22;59997;53.300;-6.260;2023-09-19T07:32:37;16.32;90.28
71942;DHT22;59997;53.300;-6.260;2023-09-19T07:35:04;16.36;90.39
71942;DHT22;59997;53.300;-6.260;2023-09-19T07:37:31;16.34;90.54
71942;DHT22;59997;53.300;-6.260;2023-09-19T07:40:04;16.40;90.55
71942;DHT22;59997;53.300;-6.260;2023-09-19T07:42:34;16.35;90.58
71942;DHT22;59997;53.300;-6.260;2023-09-19T07:45:01;16.38;90.64
71942;DHT22;59997;53.300;-6.260;2023-09-19T07:47:26;16.48;90.55
71942;DHT22;59997;53.300;-6.260;2023-09-19T07:49:52;16.55;90.42
71942;DHT22;59997;53.300;-6.260;2023-09-19T07:52:18;16.51;90.52
71942;DHT22;59997;53.300;-6.260;2023-09-19T07:54:44;16.51;90.60
71942;DHT22;59997;53.300;-6.260;2023-09-19T07:57:10;16.49;90.53
71942;DHT22;59997;53.300;-6.260;2023-09-19T07:59:37;16.49;90.57
71942;DHT22;59997;53.300;-6.260;2023-09-19T08:02:04;16.52;90.57
71942;DHT22;59997;53.300;-6.260;2023-09-19T08:04:30;16.58;90.49
71942;DHT22;59997;53.300;-6.260;2023-09-19T08:06:58;16.66;90.37
71942;DHT22;59997;53.300;-6.260;2023-09-19T08:09:24;16.79;90.25
71942;DHT22;59997;53.300;-6.260;2023-09-19T08:11:49;16.95;90.07
71942;DHT22;59997;53.300;-6.260;2023-09-19T08:14:16;17.08;89.88
71942;DHT22;59997;53.300;-6.260;2023-09-19T08:16:41;17.17;89.89
71942;DHT22;59997;53.300;-6.260;2023-09-19T08:19:09;17.20;89.90
71942;DHT22;59997;53.300;-6.260;2023-09-19T08:21:35;17.15;90.00
71942;DHT22;59997;53.300;-6.260;2023-09-19T08:24:01;17.12;90.13
71942;DHT22;59997;53.300;-6.260;2023-09-19T08:26:29;17.14;90.10
71942;DHT22;59997;53.300;-6.260;2023-09-19T08:28:56;17.25;89.95
71942;DHT22;59997;53.300;-6.260;2023-09-19T08:31:21;17.36;89.72
71942;DHT22;59997;53.300;-6.260;2023-09-19T08:33:48;17.50;89.55
71942;DHT22;59997;53.300;-6.260;2023-09-19T08:36:14;17.62;89.23
71942;DHT22;59997;53.300;-6.260;2023-09-19T08:38:40;17.90;89.10
71942;DHT22;59997;53.300;-6.260;2023-09-19T08:41:07;18.01;88.52
71942;DHT22;59997;53.300;-6.260;2023-09-19T08:43:33;18.15;88.31
71942;DHT22;59997;53.300;-6.260;2023-09-19T08:48:31;18.43;87.65
71942;DHT22;59997;53.300;-6.260;2023-09-19T08:51:26;18.59;87.38
71942;DHT22;59997;53.300;-6.260;2023-09-19T08:54:07;19.05;86.34
71942;DHT22;59997;53.300;-6.260;2023-09-19T08:56:35;19.14;86.35
71942;DHT22;59997;53.300;-6.260;2023-09-19T08:59:05;19.11;85.85
71942;DHT22;59997;53.300;-6.260;2023-09-19T09:01:34;19.01;86.88
71942;DHT22;59997;53.300;-6.260;2023-09-19T09:04:01;18.81;87.04
71942;DHT22;59997;53.300;-6.260;2023-09-19T09:06:28;18.61;87.14
71942;DHT22;59997;53.300;-6.260;2023-09-19T09:08:54;18.50;87.57
71942;DHT22;59997;53.300;-6.260;2023-09-19T09:11:20;18.25;88.01
71942;DHT22;59997;53.300;-6.260;2023-09-19T09:13:47;18.16;88.51
71942;DHT22;59997;53.300;-6.260;2023-09-19T09:16:14;18.05;88.80
71942;DHT22;59997;53.300;-6.260;2023-09-19T09:18:42;18.11;89.47
71942;DHT22;59997;53.300;-6.260;2023-09-19T09:21:11;17.96;88.93
71942;DHT22;59997;53.300;-6.260;2023-09-19T09:23:40;17.93;89.32
71942;DHT22;59997;53.300;-6.260;2023-09-19T09:26:06;17.97;89.41
71942;DHT22;59997;53.300;-6.260;2023-09-19T09:28:33;18.02;89.43
71942;DHT22;59997;53.300;-6.260;2023-09-19T09:31:01;18.02;89.67
71942;DHT22;59997;53.300;-6.260;2023-09-19T09:33:35;17.90;89.62
71942;DHT22;59997;53.300;-6.260;2023-09-19T09:36:02;17.84;90.10
71942;DHT22;59997;53.300;-6.260;2023-09-19T09:38:48;17.62;90.36
71942;DHT22;59997;53.300;-6.260;2023-09-19T09:41:16;17.53;90.28
71942;DHT22;59997;53.300;-6.260;2023-09-19T09:43:53;17.59;90.37
71942;DHT22;59997;53.300;-6.260;2023-09-19T09:46:19;17.47;90.39
71942;DHT22;59997;53.300;-6.260;2023-09-19T09:52:05;17.49;90.19
71942;DHT22;59997;53.300;-6.260;2023-09-19T09:54:34;17.61;90.07
71942;DHT22;59997;53.300;-6.260;2023-09-19T09:57:05;17.90;89.96
71942;DHT22;59997;53.300;-6.260;2023-09-19T09:59:53;18.01;89.70
71942;DHT22;59997;53.300;-6.260;2023-09-19T10:02:30;18.07;89.80
71942;DHT22;59997;53.300;-6.260;2023-09-19T10:05:17;17.91;89.75
71942;DHT22;59997;53.300;-6.260;2023-09-19T10:07:49;17.79;89.90
71942;DHT22;59997;53.300;-6.260;2023-09-19T10:10:37;17.70;90.03
71942;DHT22;59997;53.300;-6.260;2023-09-19T10:13:10;17.62;90.20
71942;DHT22;59997;53.300;-6.260;2023-09-19T10:15:46;17.56;90.09
71942;DHT22;59997;53.300;-6.260;2023-09-19T10:18:21;17.57;90.28
71942;DHT22;59997;53.300;-6.260;2023-09-19T10:20:47;17.55;90.07
71942;DHT22;59997;53.300;-6.260;2023-09-19T10:23:17;17.61;90.12
71942;DHT22;59997;53.300;-6.260;2023-09-19T10:25:48;17.66;89.86
71942;DHT22;59997;53.300;-6.260;2023-09-19T10:28:15;17.67;90.05
71942;DHT22;59997;53.300;-6.260;2023-09-19T10:30:43;17.73;89.99
71942;DHT22;59997;53.300;-6.260;2023-09-19T10:33:17;17.76;89.95
71942;DHT22;59997;53.300;-6.260;2023-09-19T10:35:47;17.74;89.96
71942;DHT22;59997;53.300;-6.260;2023-09-19T10:38:14;17.81;90.02
71942;DHT22;59997;53.300;-6.260;2023-09-19T10:40:40;17.93;90.00
71942;DHT22;59997;53.300;-6.260;2023-09-19T10:43:12;18.18;89.49
71942;DHT22;59997;53.300;-6.260;2023-09-19T10:45:38;18.31;89.17
71942;DHT22;59997;53.300;-6.260;2023-09-19T10:48:05;18.59;88.87
71942;DHT22;59997;53.300;-6.260;2023-09-19T10:50:43;19.00;88.19
71942;DHT22;59997;53.300;-6.260;2023-09-19T10:53:11;19.08;88.07
71942;DHT22;59997;53.300;-6.260;2023-09-19T10:55:37;18.85;88.15
71942;DHT22;59997;53.300;-6.260;2023-09-19T10:58:05;18.92;88.85
71942;DHT22;59997;53.300;-6.260;2023-09-19T11:00:56;18.80;89.01
71942;DHT22;59997;53.300;-6.260;2023-09-19T11:03:23;18.53;89.33
71942;DHT22;59997;53.300;-6.260;2023-09-19T11:06:08;18.52;89.75
71942;DHT22;59997;53.300;-6.260;2023-09-19T11:09:01;18.56;89.81
71942;DHT22;59997;53.300;-6.260;2023-09-19T11:11:53;18.53;89.88
71942;DHT22;59997;53.300;-6.260;2023-09-19T11:30:41;18.80;89.70
71942;DHT22;59997;53.300;-6.260;2023-09-19T11:36:12;19.18;89.04
71942;DHT22;59997;53.300;-6.260;2023-09-19T11:43:48;19.66;87.67
71942;DHT22;59997;53.300;-6.260;2023-09-19T11:46:16;19.68;87.06
71942;DHT22;59997;53.300;-6.260;2023-09-19T11:48:43;19.84;86.80
71942;DHT22;59997;53.300;-6.260;2023-09-19T11:51:23;20.41;86.30
71942;DHT22;59997;53.300;-6.260;2023-09-19T11:54:00;20.13;85.62
71942;DHT22;59997;53.300;-6.260;2023-09-19T11:56:28;20.08;85.77
71942;DHT22;59997;53.300;-6.260;2023-09-19T11:58:55;19.67;86.47
71942;DHT22;59997;53.300;-6.260;2023-09-19T12:01:32;19.42;86.85
71942;DHT22;59997;53.300;-6.260;2023-09-19T12:04:00;19.37;86.88
71942;DHT22;59997;53.300;-6.260;2023-09-19T12:06:27;19.60;87.21
71942;DHT22;59997;53.300;-6.260;2023-09-19T12:08:55;20.16;86.03
71942;DHT22;59997;53.300;-6.260;2023-09-19T12:11:23;20.15;85.95
71942;DHT22;59997;53.300;-6.260;2023-09-19T12:13:50;20.78;85.68
71942;DHT22;59997;53.300;-6.260;2023-09-19T12:16:17;20.95;84.69
71942;DHT22;59997;53.300;-6.260;2023-09-19T12:18:44;21.15;83.17
71942;DHT22;59997;53.300;-6.260;2023-09-19T12:21:30;21.24;83.60
71942;DHT22;59997;53.300;-6.260;2023-09-19T12:24:07;21.23;83.17
71942;DHT22;59997;53.300;-6.260;2023-09-19T12:26:45;20.74;83.19
71942;DHT22;59997;53.300;-6.260;2023-09-19T12:29:14;20.98;84.54
71942;DHT22;59997;53.300;-6.260;2023-09-19T12:31:50;20.96;83.50
71942;DHT22;59997;53.300;-6.260;2023-09-19T12:34:30;21.18;83.05
71942;DHT22;59997;53.300;-6.260;2023-09-19T12:37:14;21.19;83.39
71942;DHT22;59997;53.300;-6.260;2023-09-19T12:39:51;20.89;83.81
71942;DHT22;59997;53.300;-6.260;2023-09-19T12:42:23;20.43;85.31
71942;DHT22;59997;53.300;-6.260;2023-09-19T12:44:51;19.68;85.83
71942;DHT22;59997;53.300;-6.260;2023-09-19T12:47:21;19.35;87.66
71942;DHT22;59997;53.300;-6.260;2023-09-19T12:52:39;19.07;88.00
71942;DHT22;59997;53.300;-6.260;2023-09-19T12:55:05;18.98;88.17
71942;DHT22;59997;53.300;-6.260;2023-09-19T12:57:33;18.88;88.46
71942;DHT22;59997;53.300;-6.260;2023-09-19T13:00:04;19.05;88.89
71942;DHT22;59997;53.300;-6.260;2023-09-19T13:02:35;19.29;88.70
71942;DHT22;59997;53.300;-6.260;2023-09-19T13:05:01;19.37;87.95
71942;DHT22;59997;53.300;-6.260;2023-09-19T13:07:45;19.36;87.41
71942;DHT22;59997;53.300;-6.260;2023-09-19T13:10:15;20.02;87.15
71942;DHT22;59997;53.300;-6.260;2023-09-19T13:12:42;20.23;86.00
71942;DHT22;59997;53.300;-6.260;2023-09-19T13:15:14;20.37;85.16
71942;DHT22;59997;53.300;-6.260;2023-09-19T13:17:47;20.46;84.90
71942;DHT22;59997;53.300;-6.260;2023-09-19T13:20:22;20.37;85.03
71942;DHT22;59997;53.300;-6.260;2023-09-19T13:22:55;20.11;85.35
71942;DHT22;59997;53.300;-6.260;2023-09-19T13:25:25;19.85;85.87
71942;DHT22;59997;53.300;-6.260;2023-09-19T13:27:54;19.49;86.63
71942;DHT22;59997;53.300;-6.260;2023-09-19T13:30:27;19.53;87.41
71942;DHT22;59997;53.300;-6.260;2023-09-19T13:33:07;19.66;87.19
71942;DHT22;59997;53.300;-6.260;2023-09-19T13:35:33;19.46;87.39
71942;DHT22;59997;53.300;-6.260;2023-09-19T13:37:58;19.20;88.47
71942;DHT22;59997;53.300;-6.260;2023-09-19T13:40:24;19.16;88.53
71942;DHT22;59997;53.300;-6.260;2023-09-19T13:42:52;19.42;87.85
71942;DHT22;59997;53.300;-6.260;2023-09-19T13:45:18;19.71;85.78
71942;DHT22;59997;53.300;-6.260;2023-09-19T13:47:47;20.20;84.89
71942;DHT22;59997;53.300;-6.260;2023-09-19T13:50:12;20.30;84.14
71942;DHT22;59997;53.300;-6.260;2023-09-19T13:52:38;20.39;83.64
71942;DHT22;59997;53.300;-6.260;2023-09-19T13:55:04;20.63;83.87
71942;DHT22;59997;53.300;-6.260;2023-09-19T13:57:30;20.96;83.81
71942;DHT22;59997;53.300;-6.260;2023-09-19T13:59:56;21.40;84.68
71942;DHT22;59997;53.300;-6.260;2023-09-19T14:02:22;21.53;83.38
71942;DHT22;59997;53.300;-6.260;2023-09-19T14:04:48;20.79;83.11
71942;DHT22;59997;53.300;-6.260;2023-09-19T14:07:15;20.18;84.24
71942;DHT22;59997;53.300;-6.260;2023-09-19T14:09:40;20.32;83.77
71942;DHT22;59997;53.300;-6.260;2023-09-19T14:12:06;20.20;84.78
71942;DHT22;59997;53.300;-6.260;2023-09-19T14:14:32;19.84;85.88
71942;DHT22;59997;53.300;-6.260;2023-09-19T14:16:57;19.71;86.77
71942;DHT22;59997;53.300;-6.260;2023-09-19T14:19:26;19.60;87.34
71942;DHT22;59997;53.300;-6.260;2023-09-19T14:21:52;20.04;85.74
71942;DHT22;59997;53.300;-6.260;2023-09-19T14:24:20;20.04;85.09
71942;DHT22;59997;53.300;-6.260;2023-09-19T14:26:46;20.23;83.63
71942;DHT22;59997;53.300;-6.260;2023-09-19T14:29:12;20.48;83.57
71942;DHT22;59997;53.300;-6.260;2023-09-19T14:31:38;20.61;82.36
71942;DHT22;59997;53.300;-6.260;2023-09-19T14:34:05;20.64;81.20
71942;DHT22;59997;53.300;-6.260;2023-09-19T14:36:31;20.82;81.26
71942;DHT22;59997;53.300;-6.260;2023-09-19T14:38:57;20.94;80.08
71942;DHT22;59997;53.300;-6.260;2023-09-19T14:41:23;20.98;80.00
71942;DHT22;59997;53.300;-6.260;2023-09-19T14:43:51;21.19;79.61
71942;DHT22;59997;53.300;-6.260;2023-09-19T14:46:17;21.51;78.88
71942;DHT22;59997;53.300;-6.260;2023-09-19T14:48:44;21.95;77.23
71942;DHT22;59997;53.300;-6.260;2023-09-19T14:51:13;22.05;75.87
71942;DHT22;59997;53.300;-6.260;2023-09-19T14:53:41;21.96;75.52
71942;DHT22;59997;53.300;-6.260;2023-09-19T14:56:08;22.10;75.03
71942;DHT22;59997;53.300;-6.260;2023-09-19T14:58:34;21.89;75.84
71942;DHT22;59997;53.300;-6.260;2023-09-19T15:01:08;21.86;75.25
71942;DHT22;59997;53.300;-6.260;2023-09-19T15:03:36;21.53;76.62
71942;DHT22;59997;53.300;-6.260;2023-09-19T15:06:03;21.20;76.76
71942;DHT22;59997;53.300;-6.260;2023-09-19T15:08:30;20.94;77.49
71942;DHT22;59997;53.300;-6.260;2023-09-19T15:10:56;20.96;79.48
71942;DHT22;59997;53.300;-6.260;2023-09-19T15:13:23;20.85;78.87
71942;DHT22;59997;53.300;-6.260;2023-09-19T15:15:58;20.48;79.59
71942;DHT22;59997;53.300;-6.260;2023-09-19T15:18:23;19.91;81.71
71942;DHT22;59997;53.300;-6.260;2023-09-19T15:20:48;19.71;83.97
71942;DHT22;59997;53.300;-6.260;2023-09-19T15:23:14;20.06;83.79
71942;DHT22;59997;53.300;-6.260;2023-09-19T15:25:47;19.87;83.82
71942;DHT22;59997;53.300;-6.260;2023-09-19T15:28:13;19.81;82.80
71942;DHT22;59997;53.300;-6.260;2023-09-19T15:30:38;19.96;82.65
71942;DHT22;59997;53.300;-6.260;2023-09-19T15:33:04;20.02;81.99
71942;DHT22;59997;53.300;-6.260;2023-09-19T15:35:29;20.30;81.25
71942;DHT22;59997;53.300;-6.260;2023-09-19T15:37:55;20.64;80.45
71942;DHT22;59997;53.300;-6.260;2023-09-19T15:40:21;20.81;79.43
71942;DHT22;59997;53.300;-6.260;2023-09-19T15:42:49;20.95;78.22
71942;DHT22;59997;53.300;-6.260;2023-09-19T15:45:15;20.94;78.98
71942;DHT22;59997;53.300;-6.260;2023-09-19T15:47:41;21.02;79.39
71942;DHT22;59997;53.300;-6.260;2023-09-19T15:50:08;20.88;78.19
71942;DHT22;59997;53.300;-6.260;2023-09-19T15:52:39;20.98;79.11
71942;DHT22;59997;53.300;-6.260;2023-09-19T15:55:05;20.95;78.30
71942;DHT22;59997;53.300;-6.260;2023-09-19T15:57:38;20.72;78.81
71942;DHT22;59997;53.300;-6.260;2023-09-19T16:00:05;20.44;78.85
71942;DHT22;59997;53.300;-6.260;2023-09-19T16:02:37;20.18;79.78
71942;DHT22;59997;53.300;-6.260;2023-09-19T16:05:03;20.02;80.02
71942;DHT22;59997;53.300;-6.260;2023-09-19T16:07:31;19.94;80.55